sensor_id;sensor_type;location;lat;lon;timestamp;temperature;humidity
38788;DHT22;24536;45.488;12.238;2024-03-06T00:01:41;15.20;99.70
38788;DHT22;24536;45.488;12.238;2024-03-06T00:04:07;15.20;99.70
38788;DHT22;24536;45.488;12.238;2024-03-06T00:06:32;15.20;99.80
38788;DHT22;24536;45.488;12.238;2024-03-06T00:08:59;15.20;99.80
38788;DHT22;24536;45.488;12.238;2024-03-06T00:11:24;15.20;99.80
38788;DHT22;24536;45.488;12.238;2024-03-06T00:13:50;15.20;99.90
38788;DHT22;24536;45.488;12.238;2024-03-06T00:16:16;15.20;99.90
38788;DHT22;24536;45.488;12.238;2024-03-06T00:18:42;15.20;99.90
38788;DHT22;24536;45.488;12.238;2024-03-06T00:21:08;15.20;99.90
38788;DHT22;24536;45.488;12.238;2024-03-06T00:23:35;15.20;99.90
38788;DHT22;24536;45.488;12.238;2024-03-06T00:26:02;15.20;99.90
38788;DHT22;24536;45.488;12.238;2024-03-06T00:28:28;15.20;99.90
38788;DHT22;24536;45.488;12.238;2024-03-06T00:30:54;15.10;99.90
38788;DHT22;24536;45.488;12.238;2024-03-06T00:33:20;15.20;99.90
38788;DHT22;24536;45.488;12.238;2024-03-06T00:35:46;15.20;99.90
38788;DHT22;24536;45.488;12.238;2024-03-06T00:38:12;15.20;99.90
38788;DHT22;24536;45.488;12.238;2024-03-06T00:40:38;15.10;99.80
38788;DHT22;24536;45.488;12.238;2024-03-06T00:43:04;15.10;99.80
38788;DHT22;24536;45.488;12.238;2024-03-06T00:45:30;15.20;99.90
38788;DHT22;24536;45.488;12.238;2024-03-06T00:47:57;15.20;99.80
38788;DHT22;24536;45.488;12.238;2024-03-06T00:50:23;15.10;99.80
38788;DHT22;24536;45.488;12.238;2024-03-06T00:52:49;15.20;99.90
38788;DHT22;24536;45.488;12.238;2024-03-06T00:55:15;15.20;99.90
38788;DHT22;24536;45.488;12.238;2024-03-06T00:57:40;15.20;99.80
38788;DHT22;24536;45.488;12.238;2024-03-06T01:00:06;15.20;99.80
38788;DHT22;24536;45.488;12.238;2024-03-06T01:02:38;15.10;99.70
38788;DHT22;24536;45.488;12.238;2024-03-06T01:05:04;15.10;99.70
38788;DHT22;24536;45.488;12.238;2024-03-06T01:07:30;15.10;99.90
38788;DHT22;24536;45.488;12.238;2024-03-06T01:09:57;15.00;99.80
38788;DHT22;24536;45.488;12.238;2024-03-06T01:12:25;15.00;99.80
38788;DHT22;24536;45.488;12.238;2024-03-06T01:14:51;14.90;99.80
38788;DHT22;24536;45.488;12.238;2024-03-06T01:17:17;14.80;99.90
38788;DHT22;24536;45.488;12.238;2024-03-06T01:19:42;14.70;99.90
38788;DHT22;24536;45.488;12.238;2024-03-06T01:22:11;14.70;99.90
38788;DHT22;24536;45.488;12.238;2024-03-06T01:24:39;14.70;99.90
38788;DHT22;24536;45.488;12.238;2024-03-06T01:27:04;14.70;99.90
38788;DHT22;24536;45.488;12.238;2024-03-06T01:29:30;14.70;99.90
38788;DHT22;24536;45.488;12.238;2024-03-06T01:31:56;14.70;99.90
38788;DHT22;24536;45.488;12.238;2024-03-06T01:34:21;14.70;99.80
38788;DHT22;24536;45.488;12.238;2024-03-06T01:37:00;14.70;99.60
38788;DHT22;24536;45.488;12.238;2024-03-06T01:39:26;14.60;99.70
38788;DHT22;24536;45.488;12.238;2024-03-06T01:41:52;14.60;99.60
38788;DHT22;24536;45.488;12.238;2024-03-06T01:44:18;14.60;99.60
38788;DHT22;24536;45.488;12.238;2024-03-06T01:46:44;14.70;99.60
38788;DHT22;24536;45.488;12.238;2024-03-06T01:49:14;14.70;99.50
38788;DHT22;24536;45.488;12.238;2024-03-06T01:51:40;14.70;99.30
38788;DHT22;24536;45.488;12.238;2024-03-06T01:54:06;14.70;99.20
38788;DHT22;24536;45.488;12.238;2024-03-06T01:56:37;14.60;99.10
38788;DHT22;24536;45.488;12.238;2024-03-06T01:59:04;14.60;99.30
38788;DHT22;24536;45.488;12.238;2024-03-06T02:01:31;14.60;99.30
38788;DHT22;24536;45.488;12.238;2024-03-06T02:03:57;14.60;99.00
38788;DHT22;24536;45.488;12.238;2024-03-06T02:06:22;14.50;99.00
38788;DHT22;24536;45.488;12.238;2024-03-06T02:08:49;14.50;99.00
38788;DHT22;24536;45.488;12.238;2024-03-06T02:11:14;14.50;99.10
38788;DHT22;24536;45.488;12.238;2024-03-06T02:13:42;14.40;99.00
38788;DHT22;24536;45.488;12.238;2024-03-06T02:16:08;14.40;99.10
38788;DHT22;24536;45.488;12.238;2024-03-06T02:18:34;14.40;99.20
38788;DHT22;24536;45.488;12.238;2024-03-06T02:21:00;14.40;99.20
38788;DHT22;24536;45.488;12.238;2024-03-06T02:23:26;14.40;99.10
38788;DHT22;24536;45.488;12.238;2024-03-06T02:25:52;14.40;99.10
38788;DHT22;24536;45.488;12.238;2024-03-06T02:28:17;14.30;99.00
38788;DHT22;24536;45.488;12.238;2024-03-06T02:30:43;14.30;99.10
38788;DHT22;24536;45.488;12.238;2024-03-06T02:33:09;14.30;99.20
38788;DHT22;24536;45.488;12.238;2024-03-06T02:35:35;14.30;99.10
38788;DHT22;24536;45.488;12.238;2024-03-06T02:38:03;14.30;99.10
38788;DHT22;24536;45.488;12.238;2024-03-06T02:40:30;14.30;99.10
38788;DHT22;24536;45.488;12.238;2024-03-06T02:42:56;14.30;99.20
38788;DHT22;24536;45.488;12.238;2024-03-06T02:45:22;14.20;99.20
38788;DHT22;24536;45.488;12.238;2024-03-06T02:47:48;14.10;99.20
38788;DHT22;24536;45.488;12.238;2024-03-06T02:50:13;14.10;99.30
38788;DHT22;24536;45.488;12.238;2024-03-06T02:52:39;14.10;99.30
38788;DHT22;24536;45.488;12.238;2024-03-06T02:55:05;14.10;99.30
38788;DHT22;24536;45.488;12.238;2024-03-06T02:57:31;14.20;99.40
38788;DHT22;24536;45.488;12.238;2024-03-06T02:59:58;14.10;99.40
38788;DHT22;24536;45.488;12.238;2024-03-06T03:02:24;14.10;99.40
38788;DHT22;24536;45.488;12.238;2024-03-06T03:04:51;14.10;99.40
38788;DHT22;24536;45.488;12.238;2024-03-06T03:07:20;14.00;99.50
38788;DHT22;24536;45.488;12.238;2024-03-06T03:09:46;14.00;99.50
38788;DHT22;24536;45.488;12.238;2024-03-06T03:12:13;14.00;99.50
38788;DHT22;24536;45.488;12.238;2024-03-06T03:14:42;14.00;99.50
38788;DHT22;24536;45.488;12.238;2024-03-06T03:17:08;14.00;99.50
38788;DHT22;24536;45.488;12.238;2024-03-06T03:19:34;14.00;99.60
38788;DHT22;24536;45.488;12.238;2024-03-06T03:22:00;14.00;99.70
38788;DHT22;24536;45.488;12.238;2024-03-06T03:24:30;14.00;99.70
38788;DHT22;24536;45.488;12.238;2024-03-06T03:26:55;14.00;99.70
38788;DHT22;24536;45.488;12.238;2024-03-06T03:29:21;14.00;99.80
38788;DHT22;24536;45.488;12.238;2024-03-06T03:31:47;14.00;99.80
38788;DHT22;24536;45.488;12.238;2024-03-06T03:34:13;14.10;99.80
38788;DHT22;24536;45.488;12.238;2024-03-06T03:36:42;14.10;99.70
38788;DHT22;24536;45.488;12.238;2024-03-06T03:39:11;14.10;99.70
38788;DHT22;24536;45.488;12.238;2024-03-06T03:41:44;14.10;99.70
38788;DHT22;24536;45.488;12.238;2024-03-06T03:44:12;14.10;99.70
38788;DHT22;24536;45.488;12.238;2024-03-06T03:46:37;14.10;99.70
38788;DHT22;24536;45.488;12.238;2024-03-06T03:49:03;14.10;99.60
38788;DHT22;24536;45.488;12.238;2024-03-06T03:51:29;14.10;99.60
38788;DHT22;24536;45.488;12.238;2024-03-06T03:53:55;14.10;99.60
38788;DHT22;24536;45.488;12.238;2024-03-06T03:56:20;14.10;99.50
38788;DHT22;24536;45.488;12.238;2024-03-06T03:58:47;14.10;99.40
38788;DHT22;24536;45.488;12.238;2024-03-06T04:01:13;14.10;99.30
38788;DHT22;24536;45.488;12.238;2024-03-06T04:03:38;14.10;99.10
38788;DHT22;24536;45.488;12.238;2024-03-06T04:06:06;14.10;99.00
38788;DHT22;24536;45.488;12.238;2024-03-06T04:08:32;14.10;98.90
38788;DHT22;24536;45.488;12.238;2024-03-06T04:10:58;14.10;98.80
38788;DHT22;24536;45.488;12.238;2024-03-06T04:13:24;14.10;98.80
38788;DHT22;24536;45.488;12.238;2024-03-06T04:15:49;14.10;98.70
38788;DHT22;24536;45.488;12.238;2024-03-06T04:18:15;14.10;98.70
38788;DHT22;24536;45.488;12.238;2024-03-06T04:20:41;14.10;98.60
38788;DHT22;24536;45.488;12.238;2024-03-06T04:23:16;14.00;98.70
38788;DHT22;24536;45.488;12.238;2024-03-06T04:25:42;14.00;98.70
38788;DHT22;24536;45.488;12.238;2024-03-06T04:28:07;14.00;98.70
38788;DHT22;24536;45.488;12.238;2024-03-06T04:30:33;14.00;98.80
38788;DHT22;24536;45.488;12.238;2024-03-06T04:32:59;14.00;98.80
38788;DHT22;24536;45.488;12.238;2024-03-06T04:35:25;14.00;98.90
38788;DHT22;24536;45.488;12.238;2024-03-06T04:37:50;13.90;98.90
38788;DHT22;24536;45.488;12.238;2024-03-06T04:40:16;13.90;99.00
38788;DHT22;24536;45.488;12.238;2024-03-06T04:42:46;13.90;98.90
38788;DHT22;24536;45.488;12.238;2024-03-06T04:45:15;14.00;99.00
38788;DHT22;24536;45.488;12.238;2024-03-06T04:47:41;13.90;99.00
38788;DHT22;24536;45.488;12.238;2024-03-06T04:50:11;13.90;99.00
38788;DHT22;24536;45.488;12.238;2024-03-06T04:52:37;13.90;99.10
38788;DHT22;24536;45.488;12.238;2024-03-06T04:55:04;13.90;99.20
38788;DHT22;24536;45.488;12.238;2024-03-06T04:57:30;13.90;99.20
38788;DHT22;24536;45.488;12.238;2024-03-06T04:59:55;13.90;99.20
38788;DHT22;24536;45.488;12.238;2024-03-06T05:02:22;13.90;99.30
38788;DHT22;24536;45.488;12.238;2024-03-06T05:04:48;13.80;99.30
38788;DHT22;24536;45.488;12.238;2024-03-06T05:07:13;13.80;99.40
38788;DHT22;24536;45.488;12.238;2024-03-06T05:09:39;13.80;99.40
38788;DHT22;24536;45.488;12.238;2024-03-06T05:12:07;13.80;99.50
38788;DHT22;24536;45.488;12.238;2024-03-06T05:14:33;13.80;99.50
38788;DHT22;24536;45.488;12.238;2024-03-06T05:16:59;13.80;99.70
38788;DHT22;24536;45.488;12.238;2024-03-06T05:19:25;13.80;99.70
38788;DHT22;24536;45.488;12.238;2024-03-06T05:21:58;13.80;99.80
38788;DHT22;24536;45.488;12.238;2024-03-06T05:24:24;13.80;99.90
38788;DHT22;24536;45.488;12.238;2024-03-06T05:26:50;13.80;99.80
38788;DHT22;24536;45.488;12.238;2024-03-06T05:29:16;13.80;99.90
38788;DHT22;24536;45.488;12.238;2024-03-06T05:31:42;13.80;99.90
38788;DHT22;24536;45.488;12.238;2024-03-06T05:34:14;13.70;99.90
38788;DHT22;24536;45.488;12.238;2024-03-06T05:36:39;13.80;99.90
38788;DHT22;24536;45.488;12.238;2024-03-06T05:39:05;13.70;99.90
38788;DHT22;24536;45.488;12.238;2024-03-06T05:41:41;13.70;99.90
38788;DHT22;24536;45.488;12.238;2024-03-06T05:44:07;13.70;99.90
38788;DHT22;24536;45.488;12.238;2024-03-06T05:46:33;13.70;99.90
38788;DHT22;24536;45.488;12.238;2024-03-06T05:48:59;13.70;99.90
38788;DHT22;24536;45.488;12.238;2024-03-06T05:51:26;13.70;99.90
38788;DHT22;24536;45.488;12.238;2024-03-06T05:53:53;13.70;99.90
38788;DHT22;24536;45.488;12.238;2024-03-06T05:56:19;13.70;99.80
38788;DHT22;24536;45.488;12.238;2024-03-06T05:58:45;13.60;99.80
38788;DHT22;24536;45.488;12.238;2024-03-06T06:01:12;13.60;99.70
38788;DHT22;24536;45.488;12.238;2024-03-06T06:03:41;13.60;99.70
38788;DHT22;24536;45.488;12.238;2024-03-06T06:06:07;13.60;99.80
38788;DHT22;24536;45.488;12.238;2024-03-06T06:08:34;13.60;99.90
38788;DHT22;24536;45.488;12.238;2024-03-06T06:11:01;13.60;99.80
38788;DHT22;24536;45.488;12.238;2024-03-06T06:13:28;13.60;99.80
38788;DHT22;24536;45.488;12.238;2024-03-06T06:15:54;13.60;99.80
38788;DHT22;24536;45.488;12.238;2024-03-06T06:18:20;13.60;99.90
38788;DHT22;24536;45.488;12.238;2024-03-06T06:20:46;13.60;99.90
38788;DHT22;24536;45.488;12.238;2024-03-06T06:23:12;13.60;99.90
38788;DHT22;24536;45.488;12.238;2024-03-06T06:25:37;13.60;99.90
38788;DHT22;24536;45.488;12.238;2024-03-06T06:28:03;13.60;99.90
38788;DHT22;24536;45.488;12.238;2024-03-06T06:30:29;13.60;99.90
38788;DHT22;24536;45.488;12.238;2024-03-06T06:32:55;13.60;99.90
38788;DHT22;24536;45.488;12.238;2024-03-06T06:35:21;13.60;99.90
38788;DHT22;24536;45.488;12.238;2024-03-06T06:37:48;13.60;99.90
38788;DHT22;24536;45.488;12.238;2024-03-06T06:40:13;13.70;99.90
38788;DHT22;24536;45.488;12.238;2024-03-06T06:42:47;13.70;99.90
38788;DHT22;24536;45.488;12.238;2024-03-06T06:45:15;13.70;99.90
38788;DHT22;24536;45.488;12.238;2024-03-06T06:47:41;13.70;99.90
38788;DHT22;24536;45.488;12.238;2024-03-06T06:50:07;13.80;99.90
38788;DHT22;24536;45.488;12.238;2024-03-06T06:52:35;13.80;99.90
38788;DHT22;24536;45.488;12.238;2024-03-06T06:55:01;13.80;99.80
38788;DHT22;24536;45.488;12.238;2024-03-06T06:57:26;13.80;99.90
38788;DHT22;24536;45.488;12.238;2024-03-06T06:59:52;13.90;99.90
38788;DHT22;24536;45.488;12.238;2024-03-06T07:02:18;14.00;99.90
38788;DHT22;24536;45.488;12.238;2024-03-06T07:04:43;14.10;99.90
38788;DHT22;24536;45.488;12.238;2024-03-06T07:07:09;14.20;99.70
38788;DHT22;24536;45.488;12.238;2024-03-06T07:09:35;14.10;99.40
38788;DHT22;24536;45.488;12.238;2024-03-06T07:12:01;14.10;99.40
38788;DHT22;24536;45.488;12.238;2024-03-06T07:14:28;14.10;99.30
38788;DHT22;24536;45.488;12.238;2024-03-06T07:16:54;14.10;99.30
38788;DHT22;24536;45.488;12.238;2024-03-06T07:19:19;14.10;99.30
38788;DHT22;24536;45.488;12.238;2024-03-06T07:21:45;14.10;99.40
38788;DHT22;24536;45.488;12.238;2024-03-06T07:24:11;14.10;99.30
38788;DHT22;24536;45.488;12.238;2024-03-06T07:26:37;14.10;99.30
38788;DHT22;24536;45.488;12.238;2024-03-06T07:29:02;14.20;99.30
38788;DHT22;24536;45.488;12.238;2024-03-06T07:31:28;14.20;99.20
38788;DHT22;24536;45.488;12.238;2024-03-06T07:33:54;14.30;99.20
38788;DHT22;24536;45.488;12.238;2024-03-06T07:36:20;14.30;99.20
38788;DHT22;24536;45.488;12.238;2024-03-06T07:38:46;14.30;99.10
38788;DHT22;24536;45.488;12.238;2024-03-06T07:41:12;14.30;99.10
38788;DHT22;24536;45.488;12.238;2024-03-06T07:43:38;14.30;99.10
38788;DHT22;24536;45.488;12.238;2024-03-06T07:46:04;14.40;99.20
38788;DHT22;24536;45.488;12.238;2024-03-06T07:48:37;14.50;99.20
38788;DHT22;24536;45.488;12.238;2024-03-06T07:51:02;14.60;99.20
38788;DHT22;24536;45.488;12.238;2024-03-06T07:53:28;14.60;99.10
38788;DHT22;24536;45.488;12.238;2024-03-06T07:55:54;14.70;99.00
38788;DHT22;24536;45.488;12.238;2024-03-06T07:58:19;14.70;98.90
38788;DHT22;24536;45.488;12.238;2024-03-06T08:00:46;14.70;98.80
38788;DHT22;24536;45.488;12.238;2024-03-06T08:03:12;14.70;98.70
38788;DHT22;24536;45.488;12.238;2024-03-06T08:05:39;14.70;98.70
38788;DHT22;24536;45.488;12.238;2024-03-06T08:08:11;14.70;98.70
38788;DHT22;24536;45.488;12.238;2024-03-06T08:10:37;14.80;98.40
38788;DHT22;24536;45.488;12.238;2024-03-06T08:13:03;14.80;98.40
38788;DHT22;24536;45.488;12.238;2024-03-06T08:15:28;14.90;98.30
38788;DHT22;24536;45.488;12.238;2024-03-06T08:17:54;14.90;98.20
38788;DHT22;24536;45.488;12.238;2024-03-06T08:20:20;14.90;98.20
38788;DHT22;24536;45.488;12.238;2024-03-06T08:22:46;14.80;97.70
38788;DHT22;24536;45.488;12.238;2024-03-06T08:25:12;14.80;98.10
38788;DHT22;24536;45.488;12.238;2024-03-06T08:27:41;14.90;98.00
38788;DHT22;24536;45.488;12.238;2024-03-06T08:30:08;15.00;98.00
38788;DHT22;24536;45.488;12.238;2024-03-06T08:32:35;15.10;98.10
38788;DHT22;24536;45.488;12.238;2024-03-06T08:35:03;15.20;98.00
38788;DHT22;24536;45.488;12.238;2024-03-06T08:37:32;15.40;97.90
38788;DHT22;24536;45.488;12.238;2024-03-06T08:39:59;15.50;97.80
38788;DHT22;24536;45.488;12.238;2024-03-06T08:42:25;15.70;97.40
38788;DHT22;24536;45.488;12.238;2024-03-06T08:44:50;15.70;97.30
38788;DHT22;24536;45.488;12.238;2024-03-06T08:47:16;15.80;97.10
38788;DHT22;24536;45.488;12.238;2024-03-06T08:49:42;16.00;96.80
38788;DHT22;24536;45.488;12.238;2024-03-06T08:52:08;16.00;95.60
38788;DHT22;24536;45.488;12.238;2024-03-06T08:54:35;16.00;95.60
38788;DHT22;24536;45.488;12.238;2024-03-06T08:57:01;15.90;95.60
38788;DHT22;24536;45.488;12.238;2024-03-06T08:59:29;16.00;95.50
38788;DHT22;24536;45.488;12.238;2024-03-06T09:01:55;16.10;95.50
38788;DHT22;24536;45.488;12.238;2024-03-06T09:04:24;16.10;95.30
38788;DHT22;24536;45.488;12.238;2024-03-06T09:06:49;16.20;95.20
38788;DHT22;24536;45.488;12.238;2024-03-06T09:09:15;16.30;95.20
38788;DHT22;24536;45.488;12.238;2024-03-06T09:11:41;16.40;95.40
38788;DHT22;24536;45.488;12.238;2024-03-06T09:14:07;16.50;95.30
38788;DHT22;24536;45.488;12.238;2024-03-06T09:16:37;16.60;94.90
38788;DHT22;24536;45.488;12.238;2024-03-06T09:19:03;16.50;94.90
38788;DHT22;24536;45.488;12.238;2024-03-06T09:21:29;16.50;94.70
38788;DHT22;24536;45.488;12.238;2024-03-06T09:23:54;16.40;94.70
38788;DHT22;24536;45.488;12.238;2024-03-06T09:26:20;16.40;94.70
38788;DHT22;24536;45.488;12.238;2024-03-06T09:28:48;16.50;94.80
38788;DHT22;24536;45.488;12.238;2024-03-06T09:31:15;16.60;94.50
38788;DHT22;24536;45.488;12.238;2024-03-06T09:33:42;16.60;94.30
38788;DHT22;24536;45.488;12.238;2024-03-06T09:36:10;16.70;94.30
38788;DHT22;24536;45.488;12.238;2024-03-06T09:38:39;16.80;94.40
38788;DHT22;24536;45.488;12.238;2024-03-06T09:41:06;16.90;94.00
38788;DHT22;24536;45.488;12.238;2024-03-06T09:43:32;16.90;94.40
38788;DHT22;24536;45.488;12.238;2024-03-06T09:45:58;17.10;94.60
38788;DHT22;24536;45.488;12.238;2024-03-06T09:48:24;17.30;94.20
38788;DHT22;24536;45.488;12.238;2024-03-06T09:50:51;17.30;93.60
38788;DHT22;24536;45.488;12.238;2024-03-06T09:53:20;17.40;93.40
38788;DHT22;24536;45.488;12.238;2024-03-06T09:55:48;17.50;93.40
38788;DHT22;24536;45.488;12.238;2024-03-06T09:58:14;17.60;93.70
38788;DHT22;24536;45.488;12.238;2024-03-06T10:00:43;17.70;94.00
38788;DHT22;24536;45.488;12.238;2024-03-06T10:03:09;17.80;93.80
38788;DHT22;24536;45.488;12.238;2024-03-06T10:05:39;18.00;93.90
38788;DHT22;24536;45.488;12.238;2024-03-06T10:08:05;18.10;93.90
38788;DHT22;24536;45.488;12.238;2024-03-06T10:10:31;18.10;93.20
38788;DHT22;24536;45.488;12.238;2024-03-06T10:12:57;18.10;92.40
38788;DHT22;24536;45.488;12.238;2024-03-06T10:15:28;18.10;92.40
38788;DHT22;24536;45.488;12.238;2024-03-06T10:18:14;18.10;92.30
38788;DHT22;24536;45.488;12.238;2024-03-06T10:20:40;18.20;92.20
38788;DHT22;24536;45.488;12.238;2024-03-06T10:23:09;18.30;92.10
38788;DHT22;24536;45.488;12.238;2024-03-06T10:25:38;18.20;91.70
38788;DHT22;24536;45.488;12.238;2024-03-06T10:28:05;18.20;91.70
38788;DHT22;24536;45.488;12.238;2024-03-06T10:30:33;18.20;91.80
38788;DHT22;24536;45.488;12.238;2024-03-06T10:33:04;18.20;91.70
38788;DHT22;24536;45.488;12.238;2024-03-06T10:35:36;18.10;91.70
38788;DHT22;24536;45.488;12.238;2024-03-06T10:38:04;18.10;91.40
38788;DHT22;24536;45.488;12.238;2024-03-06T10:40:41;18.00;91.40
38788;DHT22;24536;45.488;12.238;2024-03-06T10:43:11;18.00;91.30
38788;DHT22;24536;45.488;12.238;2024-03-06T10:48:07;18.10;91.20
38788;DHT22;24536;45.488;12.238;2024-03-06T10:50:35;18.10;90.70
38788;DHT22;24536;45.488;12.238;2024-03-06T10:53:03;18.00;90.80
38788;DHT22;24536;45.488;12.238;2024-03-06T10:55:30;18.10;91.10
38788;DHT22;24536;45.488;12.238;2024-03-06T10:58:00;18.30;91.00
38788;DHT22;24536;45.488;12.238;2024-03-06T11:00:26;18.50;90.80
38788;DHT22;24536;45.488;12.238;2024-03-06T11:02:55;18.60;90.50
38788;DHT22;24536;45.488;12.238;2024-03-06T11:05:21;18.90;90.40
38788;DHT22;24536;45.488;12.238;2024-03-06T11:07:47;19.10;89.30
38788;DHT22;24536;45.488;12.238;2024-03-06T11:10:12;19.30;87.20
38788;DHT22;24536;45.488;12.238;2024-03-06T11:12:42;19.30;87.80
38788;DHT22;24536;45.488;12.238;2024-03-06T11:15:15;19.40;86.60
38788;DHT22;24536;45.488;12.238;2024-03-06T11:17:42;19.50;86.70
38788;DHT22;24536;45.488;12.238;2024-03-06T11:20:12;19.50;86.50
38788;DHT22;24536;45.488;12.238;2024-03-06T11:28:22;19.40;86.40
38788;DHT22;24536;45.488;12.238;2024-03-06T11:30:56;19.30;87.50
38788;DHT22;24536;45.488;12.238;2024-03-06T11:33:23;19.10;88.30
38788;DHT22;24536;45.488;12.238;2024-03-06T11:38:53;18.70;88.90
38788;DHT22;24536;45.488;12.238;2024-03-06T11:41:28;18.50;89.20
38788;DHT22;24536;45.488;12.238;2024-03-06T11:43:55;18.30;89.90
38788;DHT22;24536;45.488;12.238;2024-03-06T11:46:22;18.10;90.30
38788;DHT22;24536;45.488;12.238;2024-03-06T11:48:55;18.00;90.70
38788;DHT22;24536;45.488;12.238;2024-03-06T11:51:22;17.80;91.70
38788;DHT22;24536;45.488;12.238;2024-03-06T11:53:52;17.70;91.90
38788;DHT22;24536;45.488;12.238;2024-03-06T11:56:20;17.80;91.40
38788;DHT22;24536;45.488;12.238;2024-03-06T11:58:47;18.10;91.10
38788;DHT22;24536;45.488;12.238;2024-03-06T12:01:14;18.50;90.60
38788;DHT22;24536;45.488;12.238;2024-03-06T12:03:41;18.70;89.20
38788;DHT22;24536;45.488;12.238;2024-03-06T12:06:07;18.80;90.00
38788;DHT22;24536;45.488;12.238;2024-03-06T12:08:33;18.70;90.30
38788;DHT22;24536;45.488;12.238;2024-03-06T12:11:04;18.70;90.60
38788;DHT22;24536;45.488;12.238;2024-03-06T12:13:30;18.80;90.40
38788;DHT22;24536;45.488;12.238;2024-03-06T12:15:56;18.90;90.30
38788;DHT22;24536;45.488;12.238;2024-03-06T12:18:24;18.80;90.50
38788;DHT22;24536;45.488;12.238;2024-03-06T12:20:50;18.70;90.80
38788;DHT22;24536;45.488;12.238;2024-03-06T12:23:21;18.50;91.30
38788;DHT22;24536;45.488;12.238;2024-03-06T12:26:11;18.50;91.30
38788;DHT22;24536;45.488;12.238;2024-03-06T12:28:37;18.50;91.60
38788;DHT22;24536;45.488;12.238;2024-03-06T12:31:04;18.50;91.90
38788;DHT22;24536;45.488;12.238;2024-03-06T12:33:30;18.40;90.90
38788;DHT22;24536;45.488;12.238;2024-03-06T12:36:07;18.30;91.20
38788;DHT22;24536;45.488;12.238;2024-03-06T12:38:36;18.20;91.30
38788;DHT22;24536;45.488;12.238;2024-03-06T12:41:02;18.30;91.30
38788;DHT22;24536;45.488;12.238;2024-03-06T12:43:28;18.20;91.30
38788;DHT22;24536;45.488;12.238;2024-03-06T12:45:54;18.30;91.40
38788;DHT22;24536;45.488;12.238;2024-03-06T12:48:21;18.50;91.70
38788;DHT22;24536;45.488;12.238;2024-03-06T12:50:47;18.50;91.40
38788;DHT22;24536;45.488;12.238;2024-03-06T12:53:19;18.70;91.10
38788;DHT22;24536;45.488;12.238;2024-03-06T12:55:46;18.80;91.10
38788;DHT22;24536;45.488;12.238;2024-03-06T12:58:13;19.30;90.50
38788;DHT22;24536;45.488;12.238;2024-03-06T13:00:39;19.60;87.30
38788;DHT22;24536;45.488;12.238;2024-03-06T13:03:05;19.80;86.80
38788;DHT22;24536;45.488;12.238;2024-03-06T13:05:31;19.90;86.30
38788;DHT22;24536;45.488;12.238;2024-03-06T13:07:57;19.70;86.70
38788;DHT22;24536;45.488;12.238;2024-03-06T13:10:30;19.30;87.50
38788;DHT22;24536;45.488;12.238;2024-03-06T13:15:24;19.40;88.20
38788;DHT22;24536;45.488;12.238;2024-03-06T13:17:50;19.80;84.70
38788;DHT22;24536;45.488;12.238;2024-03-06T13:20:16;20.20;83.70
38788;DHT22;24536;45.488;12.238;2024-03-06T13:22:42;20.40;83.60
38788;DHT22;24536;45.488;12.238;2024-03-06T13:25:09;20.40;83.40
38788;DHT22;24536;45.488;12.238;2024-03-06T13:27:35;20.20;85.00
38788;DHT22;24536;45.488;12.238;2024-03-06T13:30:01;19.90;85.60
38788;DHT22;24536;45.488;12.238;2024-03-06T13:32:26;19.50;86.40
38788;DHT22;24536;45.488;12.238;2024-03-06T13:34:52;19.40;88.00
38788;DHT22;24536;45.488;12.238;2024-03-06T13:37:18;19.20;88.50
38788;DHT22;24536;45.488;12.238;2024-03-06T13:39:44;19.00;89.00
38788;DHT22;24536;45.488;12.238;2024-03-06T13:42:09;18.70;88.20
38788;DHT22;24536;45.488;12.238;2024-03-06T13:44:38;18.50;88.70
38788;DHT22;24536;45.488;12.238;2024-03-06T13:47:04;18.40;89.20
38788;DHT22;24536;45.488;12.238;2024-03-06T13:49:41;18.20;89.80
38788;DHT22;24536;45.488;12.238;2024-03-06T13:52:08;18.10;90.00
38788;DHT22;24536;45.488;12.238;2024-03-06T13:54:39;18.10;90.00
38788;DHT22;24536;45.488;12.238;2024-03-06T13:57:08;18.00;90.00
38788;DHT22;24536;45.488;12.238;2024-03-06T13:59:35;17.90;90.00
38788;DHT22;24536;45.488;12.238;2024-03-06T14:02:01;17.80;90.50
38788;DHT22;24536;45.488;12.238;2024-03-06T14:04:28;17.80;90.70
38788;DHT22;24536;45.488;12.238;2024-03-06T14:06:54;17.70;90.00
38788;DHT22;24536;45.488;12.238;2024-03-06T14:09:20;17.80;90.40
38788;DHT22;24536;45.488;12.238;2024-03-06T14:11:49;17.80;90.10
38788;DHT22;24536;45.488;12.238;2024-03-06T14:14:16;17.70;90.00
38788;DHT22;24536;45.488;12.238;2024-03-06T14:16:42;17.70;89.60
38788;DHT22;24536;45.488;12.238;2024-03-06T14:19:08;17.50;89.10
38788;DHT22;24536;45.488;12.238;2024-03-06T14:21:34;17.30;89.40
38788;DHT22;24536;45.488;12.238;2024-03-06T14:24:01;17.30;90.10
38788;DHT22;24536;45.488;12.238;2024-03-06T14:26:31;17.20;90.00
38788;DHT22;24536;45.488;12.238;2024-03-06T14:29:01;17.10;90.10
38788;DHT22;24536;45.488;12.238;2024-03-06T14:31:28;17.20;90.40
38788;DHT22;24536;45.488;12.238;2024-03-06T14:33:54;17.10;90.40
38788;DHT22;24536;45.488;12.238;2024-03-06T14:36:20;17.10;90.60
38788;DHT22;24536;45.488;12.238;2024-03-06T14:38:52;17.00;90.50
38788;DHT22;24536;45.488;12.238;2024-03-06T14:41:21;17.00;90.50
38788;DHT22;24536;45.488;12.238;2024-03-06T14:43:47;17.00;90.50
38788;DHT22;24536;45.488;12.238;2024-03-06T14:46:13;17.10;90.70
38788;DHT22;24536;45.488;12.238;2024-03-06T14:48:39;17.10;90.40
38788;DHT22;24536;45.488;12.238;2024-03-06T14:51:06;17.10;90.40
38788;DHT22;24536;45.488;12.238;2024-03-06T14:53:32;17.10;90.20
38788;DHT22;24536;45.488;12.238;2024-03-06T14:55:58;17.10;90.30
38788;DHT22;24536;45.488;12.238;2024-03-06T14:58:24;17.20;90.40
38788;DHT22;24536;45.488;12.238;2024-03-06T15:00:50;17.20;90.30
38788;DHT22;24536;45.488;12.238;2024-03-06T15:03:17;17.10;90.20
38788;DHT22;24536;45.488;12.238;2024-03-06T15:05:45;17.10;90.10
38788;DHT22;24536;45.488;12.238;2024-03-06T15:08:12;17.00;90.10
38788;DHT22;24536;45.488;12.238;2024-03-06T15:10:37;17.00;90.20
38788;DHT22;24536;45.488;12.238;2024-03-06T15:13:03;17.00;90.10
38788;DHT22;24536;45.488;12.238;2024-03-06T15:15:30;17.00;89.90
38788;DHT22;24536;45.488;12.238;2024-03-06T15:17:57;17.00;90.00
38788;DHT22;24536;45.488;12.238;2024-03-06T15:20:23;16.90;90.20
38788;DHT22;24536;45.488;12.238;2024-03-06T15:22:48;16.90;90.10
38788;DHT22;24536;45.488;12.238;2024-03-06T15:25:14;16.80;89.70
38788;DHT22;24536;45.488;12.238;2024-03-06T15:27:40;16.80;90.00